createdAt,value
2023-05-20T00:02:16.408Z,1.55
2023-05-20T00:04:44.009Z,1.42
2023-05-20T00:07:11.488Z,1.38
2023-05-20T00:09:40.115Z,1.42
2023-05-20T00:12:07.797Z,1.88
2023-05-20T00:14:35.211Z,1.85
2023-05-20T00:17:02.552Z,1.27
2023-05-20T00:19:29.970Z,1.33
2023-05-20T00:21:58.056Z,1.48
2023-05-20T00:24:25.962Z,1.75
2023-05-20T00:26:53.776Z,1.48
2023-05-20T00:29:22.646Z,1.63
2023-05-20T00:31:50.147Z,1.40
2023-05-20T00:34:17.559Z,1.63
2023-05-20T00:36:44.916Z,1.23
2023-05-20T00:39:12.755Z,1.30
2023-05-20T00:41:40.807Z,1.55
2023-05-20T00:44:08.306Z,1.92
2023-05-20T00:46:36.187Z,1.80
2023-05-20T00:49:03.704Z,1.35
2023-05-20T00:51:31.266Z,1.05
2023-05-20T00:53:59.069Z,1.33
2023-05-20T00:56:26.607Z,1.42
2023-05-20T00:58:54.139Z,1.30
2023-05-20T01:01:21.633Z,1.20
2023-05-20T01:03:49.660Z,1.27
2023-05-20T01:06:17.016Z,1.33
2023-05-20T01:08:44.842Z,1.40
2023-05-20T01:11:24.329Z,1.55
2023-05-20T01:14:03.681Z,1.60
2023-05-20T01:16:34.108Z,1.30
2023-05-20T01:19:06.833Z,1.92
2023-05-20T01:21:36.407Z,1.38
2023-05-20T01:24:05.926Z,1.67
2023-05-20T01:26:38.394Z,1.60
2023-05-20T01:29:05.963Z,1.40
2023-05-20T01:31:37.445Z,1.38
2023-05-20T01:34:05.799Z,1.55
2023-05-20T01:36:33.875Z,1.33
2023-05-20T01:39:03.143Z,1.15
2023-05-20T01:41:30.818Z,1.25
2023-05-20T01:43:59.179Z,1.30
2023-05-20T01:46:26.636Z,1.27
2023-05-20T01:48:55.110Z,1.67
2023-05-20T01:51:23.773Z,1.20
2023-05-20T01:53:51.140Z,1.35
2023-05-20T01:56:18.465Z,1.40
2023-05-20T01:58:45.877Z,1.50
2023-05-20T02:01:13.791Z,1.70
2023-05-20T02:03:44.114Z,1.50
2023-05-20T02:06:11.426Z,1.38
2023-05-20T02:08:38.787Z,1.60
2023-05-20T02:11:06.152Z,2.25
2023-05-20T02:13:33.429Z,1.38
2023-05-20T02:16:00.815Z,1.40
2023-05-20T02:18:28.106Z,1.50
2023-05-20T02:20:55.522Z,1.70
2023-05-20T02:23:22.989Z,1.38
2023-05-20T02:25:50.757Z,1.30
2023-05-20T02:28:18.275Z,1.40
2023-05-20T02:30:45.520Z,1.00
2023-05-20T02:33:13.956Z,1.30
2023-05-20T02:35:41.333Z,1.70
2023-05-20T02:38:09.052Z,1.95
2023-05-20T02:40:37.588Z,2.15
2023-05-20T02:43:05.052Z,1.25
2023-05-20T02:45:35.126Z,1.50
2023-05-20T02:48:02.794Z,1.98
2023-05-20T02:50:32.010Z,1.77
2023-05-20T02:52:59.444Z,2.13
2023-05-20T02:55:28.381Z,1.85
2023-05-20T02:57:56.236Z,1.60
2023-05-20T03:00:24.554Z,1.60
2023-05-20T03:02:51.972Z,1.75
2023-05-20T03:05:19.459Z,1.48
2023-05-20T03:07:46.857Z,1.85
2023-05-20T03:10:14.379Z,1.95
2023-05-20T03:12:41.834Z,2.10
2023-05-20T03:15:10.751Z,1.65
2023-05-20T03:17:38.252Z,1.90
2023-05-20T03:20:07.413Z,1.60
2023-05-20T03:22:34.835Z,1.50
2023-05-20T03:25:02.501Z,1.90
2023-05-20T03:27:29.903Z,1.85
2023-05-20T03:29:57.348Z,1.83
2023-05-20T03:32:24.928Z,1.63
2023-05-20T03:34:52.299Z,2.38
2023-05-20T03:37:19.606Z,1.90
2023-05-20T03:39:47.010Z,1.85
2023-05-20T03:42:14.654Z,1.67
2023-05-20T03:44:42.154Z,2.33
2023-05-20T03:47:09.584Z,1.98
2023-05-20T03:49:37.595Z,2.03
2023-05-20T03:52:05.201Z,2.03
2023-05-20T03:54:32.630Z,1.83
2023-05-20T03:57:01.029Z,1.98
2023-05-20T03:59:28.906Z,1.80
2023-05-20T04:01:57.358Z,1.88
2023-05-20T04:04:24.956Z,2.08
2023-05-20T04:06:52.312Z,1.90
2023-05-20T04:09:19.776Z,1.98
2023-05-20T04:11:48.187Z,2.05
2023-05-20T04:14:15.583Z,2.28
2023-05-20T04:16:43.548Z,2.13
2023-05-20T04:19:11.286Z,2.58
2023-05-20T04:21:39.503Z,2.10
2023-05-20T04:24:07.328Z,2.08
2023-05-20T04:26:35.296Z,1.90
2023-05-20T04:29:04.110Z,2.40
2023-05-20T04:31:31.813Z,2.10
2023-05-20T04:33:59.255Z,2.30
2023-05-20T04:36:29.856Z,2.28
2023-05-20T04:38:57.642Z,2.13
2023-05-20T04:41:25.097Z,2.20
2023-05-20T04:43:52.448Z,2.22
2023-05-20T04:46:20.562Z,2.40
2023-05-20T04:48:48.507Z,1.90
2023-05-20T04:51:16.183Z,2.00
2023-05-20T04:53:46.290Z,2.20
2023-05-20T04:56:13.713Z,2.22
2023-05-20T04:58:41.558Z,2.40
2023-05-20T05:01:08.998Z,2.25
2023-05-20T05:03:36.848Z,2.38
2023-05-20T05:06:04.999Z,2.53
2023-05-20T05:08:32.585Z,2.42
2023-05-20T05:11:00.549Z,2.63
2023-05-20T05:13:27.834Z,2.38
2023-05-20T05:16:02.500Z,2.78
2023-05-20T05:18:31.833Z,2.28
2023-05-20T05:21:04.100Z,2.67
2023-05-20T05:23:32.803Z,9.05
2023-05-20T05:26:00.453Z,4.97
2023-05-20T05:28:28.408Z,2.92
2023-05-20T05:30:56.611Z,2.50
2023-05-20T05:33:24.132Z,3.42
2023-05-20T05:35:51.716Z,2.55
2023-05-20T05:38:19.036Z,2.10
2023-05-20T05:40:47.206Z,2.63
2023-05-20T05:43:16.322Z,3.80
2023-05-20T05:45:45.152Z,6.32
2023-05-20T05:48:12.538Z,3.58
2023-05-20T05:50:43.821Z,2.72
2023-05-20T05:53:11.844Z,3.25
2023-05-20T05:55:41.619Z,2.97
2023-05-20T05:58:08.996Z,2.08
2023-05-20T06:00:36.395Z,2.40
2023-05-20T06:03:03.985Z,2.85
2023-05-20T06:05:35.207Z,2.88
2023-05-20T06:08:03.019Z,2.30
2023-05-20T06:10:33.028Z,2.90
2023-05-20T06:13:00.670Z,2.60
2023-05-20T06:15:28.560Z,2.22
2023-05-20T06:17:56.844Z,2.53
2023-05-20T06:20:24.948Z,2.10
2023-05-20T06:22:52.590Z,2.78
2023-05-20T06:25:22.987Z,2.42
2023-05-20T06:27:50.657Z,2.47
2023-05-20T06:30:20.025Z,2.47
2023-05-20T06:32:48.312Z,2.08
2023-05-20T06:35:16.349Z,2.08
2023-05-20T06:37:43.739Z,2.47
2023-05-20T06:40:12.243Z,2.05
2023-05-20T06:42:39.659Z,2.05
2023-05-20T06:45:07.772Z,1.92
2023-05-20T06:47:57.004Z,2.45
2023-05-20T06:50:25.054Z,2.35
2023-05-20T06:52:52.386Z,2.10
2023-05-20T06:55:20.106Z,2.35
2023-05-20T06:57:47.928Z,2.22
2023-05-20T07:00:18.071Z,2.25
2023-05-20T07:02:46.186Z,2.72
2023-05-20T07:05:14.984Z,2.05
2023-05-20T07:07:42.205Z,2.10
2023-05-20T07:10:10.019Z,2.80
2023-05-20T07:12:37.766Z,3.00
2023-05-20T07:15:06.920Z,2.80
2023-05-20T07:17:34.984Z,2.22
2023-05-20T07:20:04.128Z,3.33
2023-05-20T07:22:32.076Z,2.38
2023-05-20T07:25:12.001Z,2.30
2023-05-20T07:27:39.404Z,2.10
2023-05-20T07:30:07.452Z,2.15
2023-05-20T07:32:35.499Z,2.30
2023-05-20T07:35:02.939Z,2.15
2023-05-20T07:37:30.281Z,1.75
2023-05-20T07:39:57.774Z,2.28
2023-05-20T07:42:25.159Z,2.33
2023-05-20T07:44:57.278Z,2.03
2023-05-20T07:47:25.143Z,2.25
2023-05-20T07:49:52.618Z,2.00
2023-05-20T07:52:20.300Z,2.08
2023-05-20T07:54:47.690Z,2.25
2023-05-20T07:57:15.478Z,2.55
2023-05-20T07:59:43.085Z,2.15
2023-05-20T08:02:10.519Z,2.10
2023-05-20T08:04:39.099Z,2.75
2023-05-20T08:07:06.657Z,2.47
2023-05-20T08:09:45.211Z,2.50
2023-05-20T08:12:12.819Z,2.17
2023-05-20T08:14:40.763Z,2.03
2023-05-20T08:17:08.733Z,2.30
2023-05-20T08:19:36.325Z,2.38
2023-05-20T08:22:03.789Z,2.03
2023-05-20T08:24:31.451Z,2.10
2023-05-20T08:26:58.758Z,2.00
2023-05-20T08:29:27.808Z,2.60
2023-05-20T08:31:55.237Z,2.78
2023-05-20T08:34:22.909Z,2.20
2023-05-20T08:36:51.132Z,2.40
2023-05-20T08:39:18.503Z,2.35
2023-05-20T08:41:48.383Z,1.92
2023-05-20T08:44:18.005Z,2.28
2023-05-20T08:46:46.392Z,2.17
2023-05-20T08:49:14.222Z,1.90
2023-05-20T08:51:43.014Z,2.65
2023-05-20T08:54:11.996Z,2.67
2023-05-20T08:56:41.876Z,2.22
2023-05-20T08:59:10.021Z,2.40
2023-05-20T09:01:43.342Z,2.28
2023-05-20T09:04:10.746Z,2.60
2023-05-20T09:06:45.986Z,2.50
2023-05-20T09:09:14.378Z,2.28
2023-05-20T09:11:42.359Z,2.63
2023-05-20T09:14:09.852Z,2.60
2023-05-20T09:16:39.682Z,2.10
2023-05-20T09:19:07.601Z,2.08
2023-05-20T09:21:36.009Z,2.20
2023-05-20T09:24:03.568Z,2.25
2023-05-20T09:26:31.035Z,2.10
2023-05-20T09:28:58.905Z,2.40
2023-05-20T09:31:28.261Z,2.97
2023-05-20T09:33:56.058Z,2.55
2023-05-20T09:36:25.335Z,2.30
2023-05-20T09:38:54.405Z,2.90
2023-05-20T09:41:25.799Z,2.78
2023-05-20T09:43:54.472Z,2.08
2023-05-20T09:46:22.259Z,2.40
2023-05-20T09:48:49.788Z,2.60
2023-05-20T09:51:18.132Z,2.35
2023-05-20T09:53:45.861Z,2.38
2023-05-20T09:56:13.490Z,2.25
2023-05-20T09:58:44.510Z,2.53
2023-05-20T10:01:11.969Z,2.60
2023-05-20T10:03:44.077Z,2.00
2023-05-20T10:06:11.809Z,2.28
2023-05-20T10:08:58.440Z,2.38
2023-05-20T10:11:47.184Z,2.80
2023-05-20T10:14:40.286Z,2.85
2023-05-20T10:17:24.368Z,2.83
2023-05-20T10:19:58.117Z,2.58
2023-05-20T10:22:31.474Z,2.55
2023-05-20T10:25:01.260Z,2.83
2023-05-20T10:27:28.814Z,2.53
2023-05-20T10:29:59.660Z,2.30
2023-05-20T10:32:34.315Z,2.38
2023-05-20T10:35:05.229Z,2.28
2023-05-20T10:37:41.050Z,2.45
2023-05-20T10:40:16.422Z,2.22
2023-05-20T10:42:43.821Z,2.75
2023-05-20T10:45:12.016Z,2.47
2023-05-20T10:47:54.671Z,2.50
2023-05-20T10:50:36.675Z,2.28
2023-05-20T10:53:18.593Z,2.83
2023-05-20T10:55:54.937Z,3.45
2023-05-20T10:58:24.372Z,3.33
2023-05-20T11:00:55.160Z,2.67
2023-05-20T11:03:23.706Z,2.80
2023-05-20T11:05:53.025Z,3.20
2023-05-20T11:08:28.867Z,2.25
2023-05-20T11:10:57.945Z,3.00
2023-05-20T11:13:26.784Z,2.42
2023-05-20T11:15:55.149Z,2.30
2023-05-20T11:18:22.533Z,3.10
2023-05-20T11:20:51.075Z,3.10
2023-05-20T11:23:19.293Z,2.22
2023-05-20T11:28:50.757Z,3.17
2023-05-20T11:31:18.974Z,3.50
2023-05-20T11:33:52.254Z,2.80
2023-05-20T11:36:27.420Z,2.78
2023-05-20T11:38:58.696Z,2.65
2023-05-20T11:41:29.295Z,2.95
2023-05-20T11:44:01.117Z,2.97
2023-05-20T11:46:29.025Z,2.90
2023-05-20T11:48:57.858Z,3.13
2023-05-20T11:51:28.133Z,3.13
2023-05-20T11:54:06.651Z,2.95
2023-05-20T11:56:37.172Z,3.10
2023-05-20T11:59:06.087Z,3.10
2023-05-20T12:01:40.909Z,3.13
2023-05-20T12:04:09.570Z,3.00
2023-05-20T12:06:55.850Z,3.03
2023-05-20T12:09:24.746Z,3.20
2023-05-20T12:11:52.192Z,3.15
2023-05-20T12:14:19.622Z,3.70
2023-05-20T12:16:47.111Z,2.85
2023-05-20T12:19:14.650Z,2.80
2023-05-20T12:21:41.913Z,3.17
2023-05-20T12:24:10.461Z,3.28
2023-05-20T12:26:38.053Z,2.80
2023-05-20T12:29:05.503Z,2.70
2023-05-20T12:31:34.953Z,2.95
2023-05-20T12:34:02.965Z,2.40
2023-05-20T12:36:31.522Z,3.35
2023-05-20T12:38:59.067Z,2.65
2023-05-20T12:41:26.574Z,3.00
2023-05-20T12:43:54.321Z,2.90
2023-05-20T12:46:21.878Z,3.47
2023-05-20T12:48:49.421Z,3.00
2023-05-20T12:51:17.082Z,2.85
2023-05-20T12:53:45.192Z,3.55
2023-05-20T12:56:12.759Z,3.47
2023-05-20T12:58:40.202Z,3.42
2023-05-20T13:01:07.778Z,3.55
2023-05-20T13:03:35.354Z,2.40
2023-05-20T13:06:03.940Z,3.10
2023-05-20T13:08:31.519Z,3.13
2023-05-20T13:10:58.987Z,3.25
2023-05-20T13:13:29.964Z,3.53
2023-05-20T13:15:57.569Z,3.15
2023-05-20T13:18:29.021Z,3.00
2023-05-20T13:20:56.471Z,3.00
2023-05-20T13:23:23.798Z,2.60
2023-05-20T13:25:51.255Z,2.95
2023-05-20T13:28:20.770Z,2.85
2023-05-20T13:30:48.069Z,3.17
2023-05-20T13:33:15.534Z,3.33
2023-05-20T13:35:43.144Z,2.72
2023-05-20T13:38:10.491Z,3.10
2023-05-20T13:40:38.044Z,3.00
2023-05-20T13:43:05.610Z,3.10
2023-05-20T13:45:32.846Z,3.50
2023-05-20T13:48:00.376Z,3.13
2023-05-20T13:50:27.891Z,3.30
2023-05-20T13:52:55.317Z,3.10
2023-05-20T13:55:24.731Z,3.13
2023-05-20T13:57:54.344Z,3.42
2023-05-20T14:00:21.850Z,3.30
2023-05-20T14:02:49.283Z,3.45
2023-05-20T14:05:16.916Z,2.72
2023-05-20T14:07:44.161Z,2.63
2023-05-20T14:10:11.652Z,5.80
2023-05-20T14:12:38.936Z,3.22
2023-05-20T14:15:07.000Z,2.83
2023-05-20T14:17:34.316Z,3.40
2023-05-20T14:20:01.683Z,2.83
2023-05-20T14:22:29.014Z,2.90
2023-05-20T14:24:56.344Z,2.83
2023-05-20T14:27:23.604Z,2.83
2023-05-20T14:29:50.859Z,3.92
2023-05-20T14:32:18.147Z,2.95
2023-05-20T14:34:45.454Z,2.50
2023-05-20T14:37:12.897Z,3.20
2023-05-20T14:39:40.373Z,3.13
2023-05-20T14:42:07.959Z,3.22
2023-05-20T14:44:35.398Z,2.70
2023-05-20T14:47:03.371Z,3.95
2023-05-20T14:49:32.729Z,3.10
2023-05-20T14:52:00.263Z,3.00
2023-05-20T14:54:27.745Z,2.80
2023-05-20T14:56:55.047Z,3.05
2023-05-20T14:59:22.326Z,2.83
2023-05-20T15:01:49.696Z,3.22
2023-05-20T15:04:17.094Z,3.10
2023-05-20T15:06:44.530Z,3.33
2023-05-20T15:09:11.841Z,3.30
2023-05-20T15:11:39.181Z,2.83
2023-05-20T15:14:06.717Z,3.50
2023-05-20T15:16:34.268Z,3.20
2023-05-20T15:19:01.717Z,2.88
2023-05-20T15:21:29.143Z,2.85
2023-05-20T15:23:56.409Z,3.10
2023-05-20T15:26:26.823Z,2.83
2023-05-20T15:28:54.104Z,2.90
2023-05-20T15:31:21.456Z,3.00
2023-05-20T15:33:48.937Z,3.05
2023-05-20T15:36:16.619Z,2.85
2023-05-20T15:38:45.415Z,2.67
2023-05-20T15:41:13.553Z,2.45
2023-05-20T15:43:40.940Z,3.00
2023-05-20T15:46:08.430Z,2.75
2023-05-20T15:48:37.719Z,3.13
2023-05-20T15:51:05.505Z,2.60
2023-05-20T15:53:33.357Z,3.35
2023-05-20T15:56:00.736Z,2.50
2023-05-20T15:58:28.353Z,2.72
2023-05-20T16:00:55.694Z,2.92
2023-05-20T16:03:23.133Z,3.28
2023-05-20T16:05:50.564Z,3.15
2023-05-20T16:08:18.006Z,2.50
2023-05-20T16:10:45.593Z,3.15
2023-05-20T16:13:12.892Z,2.67
2023-05-20T16:15:40.535Z,3.08
2023-05-20T16:18:13.880Z,2.92
2023-05-20T16:20:41.308Z,3.42
2023-05-20T16:23:08.789Z,3.30
2023-05-20T16:25:36.256Z,3.60
2023-05-20T16:28:03.635Z,3.40
2023-05-20T16:30:31.567Z,3.28
2023-05-20T16:32:58.929Z,3.17
2023-05-20T16:35:26.645Z,3.60
2023-05-20T16:37:54.433Z,3.47
2023-05-20T16:40:22.129Z,3.65
2023-05-20T16:42:49.503Z,3.13
2023-05-20T16:45:17.171Z,3.38
2023-05-20T16:47:47.491Z,3.70
2023-05-20T16:50:14.800Z,3.13
2023-05-20T16:52:42.182Z,3.65
2023-05-20T16:55:10.277Z,3.20
2023-05-20T16:57:37.735Z,3.28
2023-05-20T17:00:08.123Z,3.33
2023-05-20T17:02:36.166Z,2.92
2023-05-20T17:05:04.406Z,2.70
2023-05-20T17:07:33.716Z,3.33
2023-05-20T17:10:01.593Z,3.20
2023-05-20T17:12:29.419Z,3.58
2023-05-20T17:14:56.662Z,2.95
2023-05-20T17:17:24.060Z,3.63
2023-05-20T17:19:51.476Z,3.15
2023-05-20T17:22:18.810Z,2.88
2023-05-20T17:24:47.785Z,2.90
2023-05-20T17:27:15.352Z,3.47
2023-05-20T17:29:43.085Z,3.40
2023-05-20T17:32:10.413Z,3.17
2023-05-20T17:34:37.791Z,3.38
2023-05-20T17:37:05.204Z,3.28
2023-05-20T17:39:32.415Z,3.47
2023-05-20T17:41:59.761Z,3.00
2023-05-20T17:44:27.030Z,3.35
2023-05-20T17:46:54.322Z,2.88
2023-05-20T17:49:22.142Z,3.58
2023-05-20T17:51:49.485Z,3.80
2023-05-20T17:54:16.957Z,2.95
2023-05-20T17:56:47.535Z,3.92
2023-05-20T17:59:14.908Z,3.67
2023-05-20T18:01:42.748Z,2.90
2023-05-20T18:04:10.815Z,3.65
2023-05-20T18:06:38.244Z,3.63
2023-05-20T18:09:05.961Z,3.58
2023-05-20T18:11:34.029Z,3.15
2023-05-20T18:14:02.671Z,3.53
2023-05-20T18:16:30.777Z,3.25
2023-05-20T18:18:58.451Z,3.17
2023-05-20T18:21:26.385Z,3.08
2023-05-20T18:23:53.742Z,2.90
2023-05-20T18:26:21.589Z,3.30
2023-05-20T18:28:50.017Z,3.17
2023-05-20T18:31:17.369Z,3.88
2023-05-20T18:33:44.675Z,3.30
2023-05-20T18:36:12.037Z,4.07
2023-05-20T18:38:41.322Z,3.05
2023-05-20T18:41:09.307Z,3.53
2023-05-20T18:43:36.666Z,3.45
2023-05-20T18:46:04.139Z,4.05
2023-05-20T18:48:31.565Z,3.78
2023-05-20T18:50:58.923Z,4.30
2023-05-20T18:53:26.648Z,3.28
2023-05-20T18:55:54.017Z,3.70
2023-05-20T18:58:21.519Z,4.53
2023-05-20T19:00:48.927Z,3.50
2023-05-20T19:03:16.973Z,4.20
2023-05-20T19:05:44.282Z,4.00
2023-05-20T19:08:11.574Z,3.95
2023-05-20T19:10:43.265Z,3.88
2023-05-20T19:13:11.081Z,3.75
2023-05-20T19:15:38.474Z,3.85
2023-05-20T19:18:06.133Z,3.75
2023-05-20T19:20:34.373Z,4.00
2023-05-20T19:23:01.748Z,4.07
2023-05-20T19:25:29.205Z,4.80
2023-05-20T19:27:56.605Z,4.15
2023-05-20T19:30:24.062Z,4.55
2023-05-20T19:32:51.395Z,4.47
2023-05-20T19:35:18.963Z,3.90
2023-05-20T19:37:51.560Z,5.07
2023-05-20T19:40:19.150Z,3.90
2023-05-20T19:42:46.650Z,4.38
2023-05-20T19:45:14.474Z,4.07
2023-05-20T19:47:42.194Z,4.07
2023-05-20T19:50:10.600Z,4.60
2023-05-20T19:52:38.076Z,4.22
2023-05-20T19:55:05.985Z,4.40
2023-05-20T19:57:33.260Z,4.65
2023-05-20T20:00:01.820Z,4.85
2023-05-20T20:02:29.237Z,4.03
2023-05-20T20:04:56.706Z,4.07
2023-05-20T20:07:24.149Z,4.15
2023-05-20T20:09:55.213Z,4.72
2023-05-20T20:12:23.534Z,5.05
2023-05-20T20:14:51.994Z,5.15
2023-05-20T20:17:21.284Z,5.30
2023-05-20T20:19:53.293Z,4.93
2023-05-20T20:22:20.897Z,4.82
2023-05-20T20:24:49.804Z,6.25
2023-05-20T20:27:19.650Z,5.65
2023-05-20T20:29:47.041Z,5.00
2023-05-20T20:32:14.531Z,5.28
2023-05-20T20:34:43.048Z,5.70
2023-05-20T20:37:14.684Z,4.63
2023-05-20T20:39:42.883Z,4.72
2023-05-20T20:42:10.579Z,5.40
2023-05-20T20:44:38.574Z,5.32
2023-05-20T20:47:06.078Z,5.38
2023-05-20T20:49:33.437Z,5.47
2023-05-20T20:52:01.102Z,5.32
2023-05-20T20:54:28.564Z,5.95
2023-05-20T20:56:56.997Z,6.10
2023-05-20T20:59:26.702Z,5.20
2023-05-20T21:01:54.949Z,5.80
2023-05-20T21:04:22.320Z,5.93
2023-05-20T21:06:49.953Z,5.68
2023-05-20T21:09:17.425Z,5.47
2023-05-20T21:11:46.022Z,6.38
2023-05-20T21:14:13.782Z,5.50
2023-05-20T21:16:42.174Z,5.88
2023-05-20T21:19:09.782Z,5.32
2023-05-20T21:21:37.242Z,6.20
2023-05-20T21:24:04.809Z,6.45
2023-05-20T21:26:32.180Z,5.93
2023-05-20T21:28:59.527Z,5.72
2023-05-20T21:31:27.053Z,7.55
2023-05-20T21:33:54.518Z,5.90
2023-05-20T21:36:22.182Z,6.40
2023-05-20T21:38:49.575Z,6.78
2023-05-20T21:41:17.050Z,6.35
2023-05-20T21:43:44.447Z,6.22
2023-05-20T21:46:11.910Z,6.50
2023-05-20T21:48:39.614Z,6.18
2023-05-20T21:51:06.989Z,6.68
2023-05-20T21:53:34.334Z,7.70
2023-05-20T21:56:02.112Z,6.32
2023-05-20T21:58:29.458Z,6.63
2023-05-20T22:00:56.814Z,6.82
2023-05-20T22:03:24.321Z,7.20
2023-05-20T22:05:51.849Z,7.35
2023-05-20T22:08:19.122Z,7.72
2023-05-20T22:10:47.043Z,6.88
2023-05-20T22:13:14.509Z,7.65
2023-05-20T22:15:42.100Z,7.28
2023-05-20T22:18:09.763Z,7.68
2023-05-20T22:20:38.560Z,6.47
2023-05-20T22:23:05.853Z,7.40
2023-05-20T22:25:33.330Z,7.22
2023-05-20T22:28:01.366Z,6.68
2023-05-20T22:30:28.656Z,6.70
2023-05-20T22:32:58.397Z,7.07
2023-05-20T22:35:25.914Z,7.45
2023-05-20T22:37:54.858Z,6.45
2023-05-20T22:40:26.787Z,7.35
2023-05-20T22:42:58.154Z,7.57
2023-05-20T22:45:43.128Z,7.78
2023-05-20T22:48:14.015Z,7.43
2023-05-20T22:50:42.291Z,7.85
2023-05-20T22:53:09.660Z,6.82
2023-05-20T22:55:38.782Z,7.75
2023-05-20T22:58:08.000Z,6.88
2023-05-20T23:00:35.479Z,7.00
2023-05-20T23:03:02.792Z,7.50
2023-05-20T23:05:30.329Z,8.32
2023-05-20T23:07:58.822Z,7.60
2023-05-20T23:10:26.257Z,7.07
2023-05-20T23:12:53.514Z,7.75
2023-05-20T23:15:21.049Z,8.18
2023-05-20T23:17:50.688Z,8.13
2023-05-20T23:20:19.407Z,8.60
2023-05-20T23:22:46.720Z,10.02
2023-05-20T23:25:14.256Z,8.70
2023-05-20T23:27:41.744Z,7.93
2023-05-20T23:30:09.490Z,8.30
2023-05-20T23:32:37.018Z,8.55
2023-05-20T23:35:04.874Z,7.82
2023-05-20T23:37:34.591Z,8.93
2023-05-20T23:40:01.909Z,7.97
2023-05-20T23:42:29.346Z,8.23
2023-05-20T23:44:56.723Z,10.60
2023-05-20T23:47:29.971Z,8.15
2023-05-20T23:49:58.044Z,9.30
2023-05-20T23:52:26.764Z,9.30
2023-05-20T23:54:54.101Z,7.97
2023-05-20T23:57:24.562Z,8.55
2023-05-20T23:59:52.132Z,8.80
